Terminal Aerodrome Forecast
Issued by NWS Louisville, KY

Home | Current Version | Previous Version | Text Only | Print | Product List | Glossary On
Versions: 1 2 3 4 5 6 7 8 9 10 11 12 13 14 15
000
FTUS43 KLMK 072000 AAB
TAFLEX
TAF AMD
KLEX 072027Z 0720/0818 22015KT 3SM SHRA VCTS BKN035CB
      TEMPO 0720/0722 23020G35KT 2SM -TSRA BKN025CB
     FM080200 22007KT P6SM -SHRA BKN040
     FM081100 22009KT P6SM -SHRA VCTS SCT007 BKN015CB
     FM081400 21010KT P6SM VCSH BKN015=

USA.gov is the U.S. government's official web portal to all federal, state and local government web resources and services.